createdAt,value
2015-12-25T12:40:14.836Z,55051
2015-12-25T12:40:26.320Z,55043
2015-12-25T12:40:38.136Z,55001
2015-12-25T12:40:49.714Z,54995
2015-12-25T12:41:01.761Z,55031
2015-12-25T12:41:14.214Z,54980
2015-12-25T12:41:27.402Z,54997
2015-12-25T12:41:39.045Z,54955
2015-12-25T12:41:50.967Z,54964
2015-12-25T12:42:02.530Z,54975
2015-12-25T12:42:14.014Z,55019
2015-12-25T12:42:26.436Z,55022
2015-12-25T12:42:41.547Z,54962
2015-12-25T12:42:53.422Z,54866
2015-12-25T12:43:08.719Z,54744
2015-12-25T12:43:21.266Z,54578
2015-12-25T12:43:32.816Z,54429
2015-12-25T12:43:44.769Z,54219
2015-12-25T12:43:56.331Z,53926
2015-12-25T12:44:07.785Z,53543
2015-12-25T12:44:20.347Z,53234
2015-12-25T12:44:32.881Z,53080
2015-12-25T12:44:45.022Z,53087
2015-12-25T12:44:56.616Z,53072
2015-12-25T12:45:08.475Z,53149
2015-12-25T12:45:20.006Z,53243
2015-12-25T12:45:31.993Z,53202
2015-12-25T12:45:45.274Z,53407
2015-12-25T12:46:01.961Z,53865
2015-12-25T12:46:14.368Z,54028
2015-12-25T12:46:26.165Z,54081
2015-12-25T12:46:37.730Z,54078
2015-12-25T12:46:49.246Z,54048
2015-12-25T12:47:01.152Z,54073
2015-12-25T12:47:13.636Z,54070
2015-12-25T12:47:25.699Z,54112
2015-12-25T12:47:37.795Z,54182
2015-12-25T12:47:49.357Z,54225
2015-12-25T12:48:00.951Z,54250
2015-12-25T12:48:12.873Z,54304
2015-12-25T12:48:24.404Z,54384
2015-12-25T12:48:36.580Z,54427
2015-12-25T12:48:48.220Z,54490
2015-12-25T12:49:00.002Z,54498
2015-12-25T12:49:11.549Z,54396
2015-12-25T12:49:23.002Z,54306
2015-12-25T12:49:34.519Z,54429
2015-12-25T12:49:46.926Z,54617
2015-12-25T12:50:04.222Z,54723
2015-12-25T12:50:15.660Z,54721
2015-12-25T12:50:27.176Z,54715
2015-12-25T12:50:38.772Z,54687
2015-12-25T12:50:50.600Z,54789
2015-12-25T12:51:04.397Z,54949
2015-12-25T12:51:15.788Z,55048
2015-12-25T12:51:27.600Z,55118
2015-12-25T12:51:39.978Z,55127
2015-12-25T12:51:52.385Z,55136
2015-12-25T12:52:06.275Z,55125
2015-12-25T12:52:18.353Z,55030
2015-12-25T12:52:30.744Z,54959
2015-12-25T12:52:42.262Z,54860
2015-12-25T12:52:53.777Z,54797
2015-12-25T12:53:05.246Z,54758
2015-12-25T12:53:17.090Z,54678
2015-12-25T12:53:29.418Z,54623
2015-12-25T12:53:41.529Z,54612
2015-12-25T12:53:53.061Z,54655
2015-12-25T12:54:05.545Z,54700
2015-12-25T12:54:17.654Z,54762
2015-12-25T12:54:29.186Z,54719
2015-12-25T12:54:41.110Z,54725
2015-12-25T12:54:52.595Z,54689
2015-12-25T12:55:08.454Z,54671
2015-12-25T12:55:21.595Z,54601
2015-12-25T12:55:33.396Z,54566
2015-12-25T12:55:44.958Z,54548
2015-12-25T12:55:56.552Z,54521
2015-12-25T12:56:08.661Z,54486
2015-12-25T12:56:20.130Z,54477
2015-12-25T12:56:32.538Z,54416
2015-12-25T12:56:44.929Z,54381
2015-12-25T12:56:56.882Z,54293
2015-12-25T12:57:08.398Z,54129
2015-12-25T12:57:19.976Z,53947
2015-12-25T12:57:31.491Z,53711
2015-12-25T12:57:44.166Z,53214
2015-12-25T12:57:55.807Z,52658
2015-12-25T12:58:07.823Z,52297
2015-12-25T12:58:20.073Z,52319
2015-12-25T12:58:31.573Z,52444
2015-12-25T12:58:43.121Z,52525
2015-12-25T12:58:54.653Z,52562
2015-12-25T12:59:07.184Z,52538
2015-12-25T12:59:20.465Z,52385
2015-12-25T12:59:32.496Z,52225
2015-12-25T12:59:44.546Z,52013
2015-12-25T12:59:57.156Z,51925
2015-12-25T13:00:08.718Z,51908
2015-12-25T13:00:20.374Z,51808
2015-12-25T13:00:31.984Z,51737
2015-12-25T13:00:44.284Z,51740
2015-12-25T13:00:57.565Z,51557
2015-12-25T13:01:09.143Z,51420
2015-12-25T13:01:20.721Z,51536
2015-12-25T13:01:32.331Z,51499
2015-12-25T13:01:44.005Z,51667
2015-12-25T13:01:56.271Z,51830
2015-12-25T13:02:07.880Z,51917
2015-12-25T13:02:20.115Z,51958
2015-12-25T13:02:31.568Z,52028
2015-12-25T13:02:43.195Z,51834
2015-12-25T13:02:55.117Z,52106
2015-12-25T13:03:06.664Z,52520
2015-12-25T13:03:18.679Z,52682
2015-12-25T13:03:30.242Z,52934
2015-12-25T13:03:41.823Z,53305
2015-12-25T13:03:57.448Z,53805
2015-12-25T13:04:08.932Z,54072
2015-12-25T13:04:20.714Z,54226
2015-12-25T13:04:32.229Z,54315
2015-12-25T13:04:43.794Z,54324
2015-12-25T13:04:55.544Z,54272
2015-12-25T13:05:07.137Z,54220
2015-12-25T13:05:20.184Z,54192
2015-12-25T13:05:31.716Z,54173
2015-12-25T13:05:43.719Z,54146
2015-12-25T13:05:55.219Z,54110
2015-12-25T13:06:06.734Z,54075
2015-12-25T13:06:18.375Z,54039
2015-12-25T13:06:30.625Z,54038
2015-12-25T13:06:42.737Z,54002
2015-12-25T13:06:55.175Z,53967
2015-12-25T13:07:07.018Z,53931
2015-12-25T13:07:18.550Z,53879
2015-12-25T13:07:30.956Z,53851
2015-12-25T13:07:42.599Z,53825
2015-12-25T13:07:54.974Z,53789
2015-12-25T13:08:08.114Z,53745
2015-12-25T13:08:20.770Z,53700
2015-12-25T13:08:32.864Z,53621
2015-12-25T13:08:44.368Z,53577
2015-12-25T13:08:57.821Z,53532
2015-12-25T13:09:10.821Z,53461
2015-12-25T13:09:22.415Z,53399
2015-12-25T13:09:33.993Z,53313
2015-12-25T13:09:46.042Z,53268
2015-12-25T13:09:57.558Z,53206
2015-12-25T13:10:10.589Z,53171
2015-12-25T13:10:23.683Z,53145
2015-12-25T13:10:35.233Z,53094
2015-12-25T13:10:46.764Z,53075
2015-12-25T13:10:58.201Z,53057
2015-12-25T13:11:09.639Z,53013
2015-12-25T13:11:21.904Z,52978
2015-12-25T13:11:33.451Z,52952
2015-12-25T13:11:45.563Z,52950
2015-12-25T13:11:57.688Z,52915
2015-12-25T13:12:09.266Z,52913
2015-12-25T13:12:21.203Z,52913
2015-12-25T13:12:32.860Z,52888
2015-12-25T13:12:44.363Z,52879
2015-12-25T13:12:56.722Z,52819
2015-12-25T13:13:08.738Z,52791
2015-12-25T13:13:20.753Z,52730
2015-12-25T13:13:32.691Z,52677
2015-12-25T13:13:44.287Z,52634
2015-12-25T13:13:56.116Z,52591
2015-12-25T13:14:08.178Z,52572
2015-12-25T13:14:19.991Z,52555
2015-12-25T13:14:31.522Z,52493
2015-12-25T13:14:43.086Z,52398
2015-12-25T13:14:54.539Z,52317
2015-12-25T13:15:06.414Z,52229
2015-12-25T13:15:18.477Z,52185
2015-12-25T13:15:30.914Z,52193
2015-12-25T13:15:42.449Z,52254
2015-12-25T13:15:54.183Z,52350
2015-12-25T13:16:05.792Z,52464
2015-12-25T13:16:17.902Z,52588
2015-12-25T13:16:29.511Z,52651
2015-12-25T13:16:41.420Z,52737
2015-12-25T13:16:53.045Z,52756
2015-12-25T13:17:04.967Z,52765
2015-12-25T13:17:17.686Z,52774
2015-12-25T13:17:29.764Z,52818
2015-12-25T13:17:41.752Z,52836
2015-12-25T13:17:53.423Z,52828
2015-12-25T13:18:05.064Z,52836
2015-12-25T13:18:16.548Z,52853
2015-12-25T13:18:28.095Z,52837
2015-12-25T13:18:39.630Z,52871
2015-12-25T13:18:51.239Z,52864
2015-12-25T13:19:02.692Z,52873
2015-12-25T13:19:14.176Z,52856
2015-12-25T13:19:29.833Z,52820
2015-12-25T13:19:42.163Z,52803
2015-12-25T13:19:54.022Z,52811
2015-12-25T13:20:05.647Z,52828
2015-12-25T13:20:17.678Z,52830
2015-12-25T13:20:34.303Z,52873
2015-12-25T13:20:45.869Z,52916
2015-12-25T13:20:57.463Z,52942
2015-12-25T13:21:09.369Z,52935
2015-12-25T13:21:20.916Z,52952
2015-12-25T13:21:32.603Z,52952
2015-12-25T13:21:45.730Z,52986
2015-12-25T13:21:57.277Z,53029
2015-12-25T13:22:09.137Z,53055
2015-12-25T13:22:20.496Z,53081
2015-12-25T13:22:32.058Z,53108
2015-12-25T13:22:43.718Z,53126
2015-12-25T13:22:55.686Z,53162
2015-12-25T13:23:08.171Z,53214
2015-12-25T13:23:20.030Z,53233
2015-12-25T13:23:31.499Z,53277
2015-12-25T13:23:43.126Z,53339
2015-12-25T13:23:54.595Z,53418
2015-12-25T13:24:06.485Z,53513
2015-12-25T13:24:18.392Z,53584
2015-12-25T13:24:29.970Z,53689
2015-12-25T13:24:42.974Z,53804
2015-12-25T13:24:54.458Z,53935
2015-12-25T13:25:05.927Z,54066
2015-12-25T13:25:18.021Z,54197
2015-12-25T13:25:30.130Z,54328
2015-12-25T13:25:41.741Z,54433
2015-12-25T13:25:54.132Z,54538
2015-12-25T13:26:05.663Z,54609
2015-12-25T13:26:17.210Z,54697
2015-12-25T13:26:29.226Z,54768
2015-12-25T13:26:41.338Z,54864
2015-12-25T13:26:52.822Z,54901
2015-12-25T13:27:04.854Z,54989
2015-12-25T13:27:16.494Z,55094
2015-12-25T13:27:27.932Z,55191
2015-12-25T13:27:40.151Z,55288
2015-12-25T13:27:51.715Z,55376
2015-12-25T13:28:03.590Z,55430
2015-12-25T13:28:15.184Z,55475
2015-12-25T13:28:26.731Z,55501
2015-12-25T13:28:38.840Z,55476
2015-12-25T13:28:51.687Z,55407
2015-12-25T13:29:03.734Z,55294
2015-12-25T13:29:15.859Z,55163
2015-12-25T13:29:27.406Z,55004
2015-12-25T13:29:39.671Z,54785
2015-12-25T13:29:55.377Z,54496
2015-12-25T13:30:08.268Z,54277
2015-12-25T13:30:19.815Z,54109
2015-12-25T13:30:31.440Z,53916
2015-12-25T13:30:42.880Z,53706
2015-12-25T13:30:54.865Z,53494
2015-12-25T13:31:07.224Z,53275
2015-12-25T13:31:18.771Z,53058
2015-12-25T13:31:32.333Z,52882
2015-12-25T13:31:44.398Z,52743
2015-12-25T13:31:56.320Z,52672
2015-12-25T13:32:07.898Z,52585
2015-12-25T13:32:19.882Z,52533
2015-12-25T13:32:31.507Z,52480
2015-12-25T13:32:43.604Z,52429
2015-12-25T13:32:55.979Z,52403
2015-12-25T13:33:12.495Z,52411
2015-12-25T13:33:24.870Z,52420
2015-12-25T13:33:37.182Z,52421
2015-12-25T13:33:48.841Z,52455
2015-12-25T13:34:01.857Z,52414
2015-12-25T13:34:13.388Z,52353
2015-12-25T13:34:25.373Z,52267
2015-12-25T13:34:37.420Z,52120
2015-12-25T13:34:49.047Z,51936
2015-12-25T13:35:01.328Z,51614
2015-12-25T13:35:13.172Z,51148
2015-12-25T13:35:25.906Z,50543
2015-12-25T13:35:38.703Z,50217
2015-12-25T13:35:50.660Z,50166
2015-12-25T13:36:02.285Z,50322
2015-12-25T15:04:39.767Z,26643
2015-12-25T15:04:51.361Z,26512
2015-12-25T15:05:03.332Z,26364
2015-12-25T15:05:15.395Z,26233
2015-12-25T15:05:29.989Z,26067
2015-12-25T15:05:41.567Z,25955
2015-12-25T15:05:53.754Z,25834
2015-12-25T15:06:05.975Z,25782
2015-12-25T15:06:18.272Z,25697
2015-12-25T15:06:29.866Z,25653
2015-12-25T15:06:42.147Z,25610
2015-12-25T15:06:53.725Z,25550
2015-12-25T15:07:05.697Z,25463
2015-12-25T15:07:18.041Z,25368
2015-12-25T15:07:30.087Z,25263
2015-12-25T15:07:41.947Z,25175
2015-12-25T15:07:54.072Z,25062
2015-12-25T15:08:05.527Z,24966
2015-12-25T15:08:16.980Z,24853
2015-12-25T15:08:28.886Z,24758
2015-12-25T15:08:41.277Z,24611
2015-12-25T15:08:52.824Z,24506
2015-12-25T15:09:04.842Z,24384
2015-12-25T15:09:16.858Z,24245
2015-12-25T15:09:28.327Z,24115
2015-12-25T15:09:44.139Z,23967
2015-12-25T15:09:55.671Z,23846
2015-12-25T15:10:07.236Z,23734
2015-12-25T15:10:18.767Z,23646
2015-12-25T15:10:30.783Z,23524
2015-12-25T15:10:42.439Z,23393
2015-12-25T15:10:55.142Z,23260
2015-12-25T15:11:07.192Z,23101
2015-12-25T15:11:18.973Z,22933
2015-12-25T15:11:31.739Z,22721
2015-12-25T15:11:44.114Z,22501
2015-12-25T15:11:55.692Z,22314
2015-12-25T15:12:08.726Z,22101
2015-12-25T15:12:21.430Z,21847
2015-12-25T15:12:33.351Z,21652
2015-12-25T15:12:45.070Z,21441
2015-12-25T15:12:56.883Z,21264
2015-12-25T15:13:08.338Z,21054
2015-12-25T15:13:19.900Z,20878
2015-12-25T15:13:31.416Z,20719
2015-12-25T15:13:47.728Z,20473
2015-12-25T15:14:00.135Z,20299
2015-12-25T15:14:11.731Z,20141
2015-12-25T15:14:23.278Z,19993
2015-12-25T15:14:35.263Z,19870
2015-12-25T15:14:46.778Z,19739
2015-12-25T15:14:58.888Z,19583
2015-12-25T15:15:11.171Z,19451
2015-12-25T15:15:23.218Z,19337
2015-12-25T15:15:34.718Z,19224
2015-12-25T15:15:46.780Z,19112
2015-12-25T15:15:58.812Z,18991
2015-12-25T15:16:10.299Z,18905
2015-12-25T15:52:22.114Z,1771
2015-12-25T15:52:33.629Z,1734
2015-12-25T15:52:45.835Z,1679
2015-12-25T15:52:58.304Z,1642
2015-12-25T15:53:09.945Z,1605
2015-12-25T15:53:21.585Z,1560
2015-12-25T15:53:33.523Z,1515
2015-12-25T15:53:45.620Z,1499
2015-12-25T15:53:57.432Z,1445
2015-12-25T15:54:09.198Z,1410
2015-12-25T15:54:20.870Z,1385
2015-12-25T15:54:32.385Z,1331
2015-12-25T15:54:44.512Z,1306
2015-12-25T15:54:57.044Z,1271
2015-12-25T15:55:09.153Z,1246
2015-12-25T15:55:21.184Z,1211
2015-12-25T15:55:32.700Z,1176
2015-12-25T15:55:44.156Z,1141
2015-12-25T15:55:56.078Z,1087
2015-12-25T15:56:08.453Z,1052
2015-12-25T15:56:20.734Z,1035
2015-12-25T15:56:32.578Z,1000
2015-12-25T15:56:44.674Z,984
2015-12-25T15:56:56.127Z,938
2015-12-25T15:57:07.627Z,903
2015-12-25T15:57:19.095Z,887
2015-12-25T15:57:31.408Z,851
2015-12-25T15:57:42.942Z,835
2015-12-25T15:57:55.302Z,810
2015-12-25T15:58:06.786Z,775
2015-12-25T15:58:18.864Z,746
2015-12-25T15:58:30.333Z,731
2015-12-25T15:58:42.195Z,716
2015-12-25T15:58:54.398Z,692
2015-12-25T15:59:06.211Z,676
2015-12-25T15:59:17.680Z,661
2015-12-25T15:59:29.633Z,645
2015-12-25T15:59:41.133Z,629
2015-12-25T15:59:53.369Z,603
2015-12-25T16:00:04.838Z,587
2015-12-25T16:00:16.760Z,572
2015-12-25T16:00:28.791Z,545
2015-12-25T16:00:41.650Z,530
2015-12-25T16:00:54.138Z,503
2015-12-25T16:01:06.325Z,502
2015-12-25T16:01:20.106Z,486
2015-12-25T16:01:31.669Z,460
2015-12-25T16:01:43.141Z,444
2015-12-25T16:01:55.188Z,442
2015-12-25T16:02:06.672Z,426
2015-12-25T16:02:18.063Z,411
2015-12-25T16:02:29.484Z,406
2015-12-25T16:02:41.047Z,390
2015-12-25T16:02:52.580Z,375
2015-12-25T16:03:04.471Z,370
2015-12-25T16:03:16.205Z,354
2015-12-25T16:03:27.596Z,339
2015-12-25T16:03:38.986Z,323
2015-12-25T16:03:50.380Z,318
2015-12-25T16:04:01.771Z,302
2015-12-25T16:04:13.146Z,298
2015-12-25T16:04:24.521Z,293
2015-12-25T16:04:35.989Z,288
2015-12-25T16:04:47.946Z,272
2015-12-25T16:05:00.930Z,273
2015-12-25T16:05:12.946Z,275
2015-12-25T16:05:24.367Z,248
2015-12-25T16:05:35.836Z,250
2015-12-25T16:05:47.558Z,223
2015-12-25T16:05:59.027Z,243
2015-12-25T16:06:10.542Z,216
2015-12-25T16:06:22.324Z,236
2015-12-25T16:06:34.277Z,228
2015-12-25T16:06:46.091Z,219
2015-12-25T16:06:57.904Z,211
2015-12-25T16:07:09.404Z,203
2015-12-25T16:07:20.888Z,194
2015-12-25T16:07:32.294Z,204
2015-12-25T16:07:43.794Z,196
2015-12-25T16:07:55.219Z,178
2015-12-25T16:08:06.610Z,187
2015-12-25T16:08:18.532Z,179
2015-12-25T16:08:29.922Z,161
2015-12-25T16:08:42.391Z,171
2015-12-25T16:08:55.035Z,152
2015-12-25T16:09:06.503Z,162
2015-12-25T16:09:18.378Z,144
2015-12-25T16:09:30.597Z,154
2015-12-25T16:09:42.503Z,136
2015-12-25T16:09:56.006Z,146
2015-12-25T16:10:07.538Z,127
2015-12-25T16:10:19.053Z,137
2015-12-25T16:10:30.710Z,119
2015-12-25T16:10:43.272Z,129
2015-12-25T16:10:54.837Z,111
2015-12-25T16:11:06.399Z,111
2015-12-25T16:11:18.415Z,120
2015-12-25T16:11:30.180Z,102
2015-12-25T16:11:42.602Z,84
2015-12-25T16:11:54.120Z,112
2015-12-25T16:12:06.292Z,94
2015-12-25T16:12:18.714Z,75
2015-12-25T16:12:30.276Z,104
2015-12-25T16:12:42.120Z,102
2015-12-25T16:12:54.077Z,84
2015-12-25T16:13:05.514Z,95
2015-12-25T16:13:18.155Z,77
2015-12-25T16:13:29.655Z,77
2015-12-25T16:13:41.358Z,59
2015-12-25T16:13:53.485Z,87
2015-12-25T16:14:05.095Z,69
2015-12-25T16:14:17.610Z,69
2015-12-25T16:14:29.954Z,50
2015-12-25T16:14:42.563Z,79
2015-12-25T16:14:55.113Z,60
2015-12-25T16:15:07.598Z,60
2015-12-25T16:15:19.613Z,42
2015-12-25T16:15:31.801Z,70
2015-12-25T16:15:43.785Z,52
2015-12-25T16:15:55.366Z,52
2015-12-25T16:16:06.819Z,52
2015-12-25T16:16:18.210Z,33
2015-12-25T16:16:30.163Z,33
2015-12-25T16:16:42.476Z,62
2015-12-25T16:16:58.009Z,43
2015-12-25T16:17:09.368Z,43
2015-12-25T16:17:22.634Z,43
2015-12-25T16:17:33.915Z,25
2015-12-25T16:17:45.290Z,25
2015-12-25T16:17:56.668Z,25
2015-12-25T16:18:08.684Z,25
2015-12-25T16:18:20.152Z,53
2015-12-25T16:18:31.481Z,35
2015-12-25T16:18:42.918Z,35
2015-12-25T16:18:55.515Z,35
2015-12-25T16:19:06.921Z,35
2015-12-25T16:19:18.296Z,35
2015-12-25T16:19:29.702Z,35
2015-12-25T16:19:41.140Z,17
2015-12-25T16:19:52.532Z,17
2015-12-25T16:20:04.017Z,17
2015-12-25T16:20:16.142Z,17
2015-12-25T16:20:27.564Z,17
2015-12-25T16:20:39.032Z,17
2015-12-25T16:20:50.501Z,17
2015-12-25T16:21:02.708Z,26
2015-12-25T16:21:14.115Z,26
2015-12-25T16:21:25.490Z,26
2015-12-25T16:21:37.380Z,26
2015-12-25T16:21:48.802Z,26
2015-12-25T16:22:00.242Z,26
2015-12-25T16:22:12.242Z,26
2015-12-25T16:22:23.679Z,26
2015-12-25T16:22:35.179Z,26
2015-12-25T16:22:46.632Z,26
2015-12-25T16:22:57.994Z,26
2015-12-25T16:23:09.462Z,26
2015-12-25T16:23:21.322Z,8
2015-12-25T16:23:32.712Z,8
2015-12-25T16:23:44.181Z,8
2015-12-25T16:23:55.606Z,8
2015-12-25T16:24:06.981Z,8
2015-12-25T16:24:18.450Z,8
2015-12-25T16:24:29.903Z,8
2015-12-25T16:24:41.309Z,8
2015-12-25T16:24:53.171Z,8
2015-12-25T16:25:05.390Z,8
2015-12-25T16:25:16.781Z,8
2015-12-25T16:25:28.140Z,8
2015-12-25T16:25:39.531Z,8
2015-12-25T16:25:51.296Z,8
2015-12-25T16:26:02.737Z,8
2015-12-25T16:26:14.909Z,8
2015-12-25T16:26:26.299Z,8
2015-12-25T16:26:38.049Z,8
2015-12-25T16:26:50.643Z,8
2015-12-25T16:27:02.599Z,8
2015-12-25T16:27:14.037Z,0
2015-12-25T16:27:25.334Z,0
2015-12-25T16:27:36.677Z,0
2015-12-25T16:27:48.584Z,8
2015-12-25T16:28:00.523Z,0
2015-12-25T16:28:12.429Z,0
2015-12-25T16:28:24.367Z,0
2015-12-25T16:28:39.476Z,0
2015-12-25T16:28:51.523Z,0
2015-12-25T16:29:03.495Z,0
2015-12-25T16:29:18.464Z,0
2015-12-25T16:29:31.511Z,15
2015-12-25T16:29:44.432Z,0
2015-12-25T16:29:55.934Z,15
2015-12-25T16:30:07.434Z,15
2015-12-25T16:30:23.700Z,15
2015-12-25T16:30:35.247Z,15
2015-12-25T16:30:46.825Z,15
2015-12-25T16:30:58.969Z,15
2015-12-25T16:31:10.516Z,15
2015-12-25T16:31:22.000Z,15
2015-12-25T16:31:33.516Z,15
2015-12-25T16:31:45.578Z,15
2015-12-25T16:31:58.519Z,15
2015-12-25T16:32:10.034Z,15
2015-12-25T16:32:21.519Z,15
2015-12-25T16:32:34.003Z,15
2015-12-25T16:32:45.472Z,15
2015-12-25T16:32:57.365Z,15
2015-12-25T16:33:08.818Z,15
2015-12-25T16:33:20.287Z,15
2015-12-25T16:33:32.209Z,15
2015-12-25T16:33:43.709Z,15
2015-12-25T16:33:55.540Z,15
2015-12-25T16:34:06.962Z,15
2015-12-25T16:34:18.962Z,15
2015-12-25T16:34:30.509Z,15
2015-12-25T16:34:42.087Z,15
2015-12-25T16:34:53.978Z,15
2015-12-25T16:35:05.558Z,15
2015-12-25T16:35:17.761Z,15
2015-12-25T16:35:29.323Z,15
2015-12-25T16:35:43.917Z,15
2015-12-25T16:35:55.842Z,15
2015-12-25T16:36:07.342Z,15
2015-12-25T16:36:19.748Z,15
2015-12-25T16:36:31.295Z,15
2015-12-25T16:36:43.311Z,15
2015-12-25T16:36:57.001Z,15
2015-12-25T16:37:12.689Z,15
2015-12-25T16:37:24.158Z,15
2015-12-25T16:37:36.126Z,15
2015-12-25T16:37:47.704Z,15
2015-12-25T16:37:59.206Z,15
2015-12-25T16:38:11.081Z,15
2015-12-25T16:38:22.675Z,15
2015-12-25T16:38:34.066Z,15
2015-12-25T16:38:45.878Z,15
2015-12-25T16:38:57.241Z,15
2015-12-25T16:39:08.631Z,0
2015-12-25T16:39:19.959Z,0
2015-12-25T16:39:31.334Z,0
2015-12-25T16:39:42.647Z,0
2015-12-25T16:39:54.006Z,0
2015-12-25T16:40:05.415Z,0
2015-12-25T16:40:16.774Z,0
2015-12-25T16:40:28.743Z,0
2015-12-25T16:40:40.977Z,0
2015-12-25T16:40:52.305Z,0
2015-12-25T16:41:03.622Z,0
2015-12-25T16:41:14.965Z,0
2015-12-25T16:41:26.325Z,0
2015-12-25T16:41:38.309Z,0
2015-12-25T16:41:49.700Z,0
2015-12-25T16:42:01.108Z,0
2015-12-25T16:42:12.530Z,0
2015-12-25T16:42:23.889Z,0
2015-12-25T16:42:35.342Z,0
2015-12-25T16:42:46.827Z,0
2015-12-25T16:42:58.720Z,0
2015-12-25T16:43:10.080Z,0
2015-12-25T16:43:21.361Z,0
2015-12-25T16:43:32.689Z,0
2015-12-25T16:43:44.064Z,0
2015-12-25T16:43:55.564Z,0
2015-12-25T16:44:06.988Z,0
2015-12-25T16:44:18.410Z,0
2015-12-25T16:44:29.832Z,0
2015-12-25T16:44:41.691Z,0
2015-12-25T16:44:53.113Z,0
2015-12-25T16:45:09.272Z,0
2015-12-25T16:45:20.819Z,0
2015-12-25T16:45:32.788Z,0
2015-12-25T16:45:44.304Z,0
2015-12-25T16:45:56.304Z,0
2015-12-25T16:46:08.885Z,0
2015-12-25T16:46:20.900Z,0
2015-12-25T16:46:32.760Z,0
2015-12-25T16:46:44.682Z,0
2015-12-25T16:46:56.197Z,0
2015-12-25T16:47:07.778Z,0
2015-12-25T16:47:19.294Z,0
2015-12-25T16:47:31.247Z,0
2015-12-25T16:47:44.450Z,0
2015-12-25T16:47:55.966Z,0
2015-12-25T16:48:07.390Z,0
2015-12-25T16:48:20.030Z,0
2015-12-25T16:48:31.937Z,0
2015-12-25T16:48:43.952Z,0
2015-12-25T16:48:56.046Z,0
2015-12-25T16:49:07.643Z,0
2015-12-25T16:49:20.299Z,0
2015-12-25T16:49:31.955Z,0
2015-12-25T16:49:43.455Z,0
2015-12-25T16:49:55.018Z,0
2015-12-25T16:50:06.599Z,0
2015-12-25T16:50:18.130Z,0
2015-12-25T16:50:29.708Z,0
2015-12-25T16:50:41.333Z,0
2015-12-25T16:50:52.880Z,0
2015-12-25T16:51:04.413Z,0
2015-12-25T16:51:16.945Z,0
2015-12-25T16:51:29.054Z,0
2015-12-25T16:51:41.726Z,0
2015-12-25T16:51:53.648Z,0
2015-12-25T16:52:05.183Z,0
2015-12-25T16:52:23.511Z,0
2015-12-25T16:52:35.089Z,0
2015-12-25T16:52:47.089Z,0
2015-12-25T16:52:59.370Z,0
2015-12-25T16:53:11.451Z,0
2015-12-25T16:53:22.935Z,0
2015-12-25T16:53:34.794Z,0
2015-12-25T16:53:47.044Z,0
2015-12-25T16:53:58.638Z,0
2015-12-25T16:54:11.329Z,0
2015-12-25T16:54:23.235Z,0
2015-12-25T16:54:34.750Z,0
2015-12-25T16:54:46.219Z,0
2015-12-25T16:54:58.719Z,0
2015-12-25T16:55:10.549Z,0
2015-12-25T16:55:26.221Z,0
2015-12-25T16:55:37.721Z,0
2015-12-25T16:55:51.424Z,0
2015-12-25T16:56:03.834Z,0
2015-12-25T16:56:16.115Z,0
2015-12-25T16:56:27.568Z,0
2015-12-25T16:56:39.099Z,0
2015-12-25T16:56:51.334Z,0
2015-12-25T16:57:03.243Z,0
2015-12-25T16:57:15.118Z,0
2015-12-25T16:57:26.977Z,0
2015-12-25T16:57:39.149Z,0
2015-12-25T16:57:50.524Z,0
2015-12-25T16:58:02.024Z,0
2015-12-25T16:58:16.526Z,15
2015-12-25T16:58:28.057Z,0
2015-12-25T16:58:39.917Z,0
2015-12-25T16:58:51.745Z,0
2015-12-25T16:59:03.182Z,0
2015-12-25T16:59:15.092Z,0
2015-12-25T16:59:26.592Z,0
2015-12-25T16:59:41.060Z,0
2015-12-25T16:59:52.529Z,0
2015-12-25T17:00:04.423Z,0
2015-12-25T17:00:16.298Z,0
2015-12-25T17:00:27.829Z,0
2015-12-25T17:00:39.251Z,0
2015-12-25T17:00:50.720Z,0
2015-12-25T17:01:02.266Z,0
2015-12-25T17:01:13.754Z,0
2015-12-25T17:01:25.332Z,0
2015-12-25T17:01:37.191Z,0
2015-12-25T17:01:48.660Z,0
2015-12-25T17:02:01.176Z,0
2015-12-25T17:02:13.068Z,0
2015-12-25T17:02:25.896Z,0
2015-12-25T17:02:37.662Z,0
2015-12-25T17:02:50.318Z,0
2015-12-25T17:03:02.584Z,0
2015-12-25T17:03:14.492Z,0
2015-12-25T17:03:26.430Z,0
2015-12-25T17:03:38.477Z,0
2015-12-25T17:03:50.414Z,0
2015-12-25T17:04:02.289Z,0
2015-12-25T17:04:13.870Z,0
2015-12-25T17:04:26.026Z,0
2015-12-25T17:04:37.526Z,0
2015-12-25T17:04:49.636Z,0
2015-12-25T17:05:01.089Z,0
2015-12-25T17:05:12.576Z,0
2015-12-25T17:05:23.983Z,0
2015-12-25T17:05:35.451Z,0
2015-12-25T17:05:46.983Z,0
2015-12-25T17:05:58.998Z,0
2015-12-25T17:06:10.439Z,0
2015-12-25T17:06:21.923Z,0
2015-12-25T17:06:34.298Z,0
2015-12-25T17:06:46.673Z,0
2015-12-25T17:06:58.657Z,0
2015-12-25T17:07:10.035Z,0
2015-12-25T17:07:21.442Z,0
2015-12-25T17:07:33.223Z,0
2015-12-25T17:07:44.692Z,0
2015-12-25T17:07:56.207Z,0
2015-12-25T17:08:07.741Z,0
2015-12-25T17:08:19.194Z,0
2015-12-25T17:08:31.100Z,0
2015-12-25T17:08:42.912Z,0
2015-12-25T17:08:54.350Z,0
2015-12-25T17:09:06.756Z,0
2015-12-25T17:09:18.228Z,0
2015-12-25T17:09:29.650Z,0
2015-12-25T17:09:41.040Z,0
2015-12-25T17:09:52.869Z,0
2015-12-25T17:10:04.353Z,0
2015-12-25T17:10:15.917Z,0
2015-12-25T17:10:32.246Z,0
2015-12-25T17:10:44.183Z,0
2015-12-25T17:10:56.167Z,0
2015-12-25T17:11:08.061Z,0
2015-12-25T17:11:19.608Z,0
2015-12-25T17:11:31.077Z,0
2015-12-25T17:11:42.561Z,0
2015-12-25T17:11:54.030Z,0
2015-12-25T17:12:05.577Z,0
2015-12-25T17:12:17.095Z,0
2015-12-25T17:12:28.658Z,0
2015-12-25T17:12:40.658Z,0
2015-12-25T17:12:52.158Z,0
2015-12-25T17:13:03.752Z,0
2015-12-25T17:13:15.270Z,0
2015-12-25T17:13:26.676Z,0
2015-12-25T17:13:38.520Z,0
2015-12-25T17:13:50.270Z,0
2015-12-25T17:14:02.130Z,0
2015-12-25T17:14:17.758Z,0
2015-12-25T17:14:29.804Z,0
2015-12-25T17:14:41.273Z,0
2015-12-25T17:14:52.773Z,0
2015-12-25T17:15:04.304Z,0
2015-12-25T17:15:16.088Z,0
2015-12-25T17:15:27.681Z,0
2015-12-25T17:15:39.244Z,0
2015-12-25T17:15:50.713Z,0
2015-12-25T17:16:02.260Z,0
2015-12-25T17:16:13.591Z,0
2015-12-25T17:16:25.091Z,0
2015-12-25T17:16:36.669Z,0
2015-12-25T17:16:48.184Z,0
2015-12-25T17:16:59.809Z,0
2015-12-25T17:17:11.375Z,0
2015-12-25T17:17:22.937Z,0
2015-12-25T17:17:34.937Z,0
2015-12-25T17:17:46.484Z,0
2015-12-25T17:17:59.187Z,0
2015-12-25T17:18:11.190Z,0
2015-12-25T17:18:23.050Z,0
2015-12-25T17:18:35.144Z,0
2015-12-25T17:18:46.784Z,0
2015-12-25T17:18:58.956Z,0
2015-12-25T17:19:10.505Z,0
2015-12-25T17:19:22.817Z,0
2015-12-25T17:19:35.161Z,0
2015-12-25T17:19:46.708Z,0
2015-12-25T17:19:58.271Z,0
2015-12-25T17:20:09.786Z,0
2015-12-25T17:20:22.024Z,0
2015-12-25T17:20:33.555Z,0
2015-12-25T17:20:46.320Z,0
2015-12-25T17:20:57.820Z,0
2015-12-25T17:21:09.836Z,0
2015-12-25T17:21:21.917Z,0
2015-12-25T17:21:33.558Z,0
2015-12-25T17:21:45.058Z,0
2015-12-25T17:21:56.714Z,0
2015-12-25T17:22:08.277Z,0
2015-12-25T17:22:20.576Z,0
2015-12-25T17:22:32.514Z,0
2015-12-25T17:22:44.483Z,0
2015-12-25T17:22:56.326Z,0
2015-12-25T17:23:07.920Z,0
2015-12-25T17:23:20.032Z,0
2015-12-25T17:23:31.922Z,0
2015-12-25T17:23:43.969Z,0
2015-12-25T17:23:55.391Z,0
2015-12-25T17:24:06.797Z,0
2015-12-25T17:24:18.253Z,0
2015-12-25T17:24:29.847Z,0
2015-12-25T17:24:41.316Z,0
2015-12-25T17:24:53.050Z,0
2015-12-25T17:25:04.972Z,0
2015-12-25T17:25:16.991Z,0
2015-12-25T17:25:36.600Z,0
2015-12-25T17:25:48.553Z,0
2015-12-25T17:26:01.444Z,0
2015-12-25T17:26:13.493Z,0
2015-12-25T17:26:25.024Z,0
2015-12-25T17:26:39.586Z,0
2015-12-25T17:26:51.149Z,0
2015-12-25T17:27:02.665Z,0
2015-12-25T17:27:14.713Z,0
2015-12-25T17:27:30.026Z,0
2015-12-25T17:27:41.807Z,0
2015-12-25T17:27:53.276Z,0
2015-12-25T17:28:05.010Z,0
2015-12-25T17:28:17.341Z,0
2015-12-25T17:28:28.904Z,0
2015-12-25T17:28:40.420Z,0
2015-12-25T17:28:52.388Z,0
2015-12-25T17:29:04.545Z,0
2015-12-25T17:29:16.454Z,0
2015-12-25T17:29:28.048Z,0